Weather reports worldwide

Advertisment
Cartagena, Spain (8434): temperature & dewpoint: 08.11.2018 13:00:00 - 14.11.2018 13:00:00 (CET)Cartagena, Spain (8434): wind speed & gusts: 08.11.2018 13:00:00 - 14.11.2018 13:00:00 (CET)Cartagena, Spain (8434): wind direction: 08.11.2018 13:00:00 - 14.11.2018 13:00:00 (CET)Cartagena, Spain (8434): precipitation: 08.11.2018 13:00:00 - 14.11.2018 13:00:00 (CET)
Date & Time tt [°C] td [°C] ff [km/h] ff [kn] fx [km/h] fx [kn] dd rr [mm]
14.11.2018 13:00:00 - - - - - - - -
14.11.2018 12:00:00 18,4 15,6 10 5 27 14 NE 0,0
14.11.2018 11:00:00 18,1 16,1 5 3 18 10 NNE 0,0
14.11.2018 10:00:00 16,6 14,8 4 2 11 6 NNW 0,0
14.11.2018 09:00:00 16,0 14,2 5 3 12 6 NW 0,1
14.11.2018 08:00:00 16,0 14,4 4 2 11 6 NNW 0,2
14.11.2018 07:00:00 16,1 14,5 6 4 16 9 N -
14.11.2018 06:00:00 16,3 14,8 8 4 16 8 NNW 1,6
14.11.2018 05:00:00 16,8 15,0 4 2 10 5 NNW 0,0
14.11.2018 04:00:00 16,6 14,8 5 3 14 8 NNW 0,0
14.11.2018 03:00:00 16,2 14,2 4 2 11 6 NNW 0,0
14.11.2018 02:00:00 16,2 14,4 3 1 11 6 NNW 0,0
14.11.2018 01:00:00 16,4 14,6 5 3 11 6 NNW -
14.11.2018 00:00:00 16,4 14,4 3 2 11 6 N 0,0
13.11.2018 23:00:00 16,6 14,3 3 2 10 5 N 0,0
13.11.2018 22:00:00 17,0 14,5 4 2 13 7 NNW 0,0
13.11.2018 21:00:00 17,7 14,8 6 4 16 9 NNE 0,0
13.11.2018 20:00:00 17,9 14,8 3 2 16 9 NNE 0,0
13.11.2018 19:00:00 18,0 14,5 5 3 16 8 NNE -
13.11.2018 18:00:00 18,5 14,6 6 3 18 10 NNE 0,0
13.11.2018 17:00:00 19,3 15,6 5 3 22 12 NE 0,0
13.11.2018 16:00:00 19,5 15,2 13 7 23 12 ENE 0,0
13.11.2018 15:00:00 19,6 15,3 11 6 29 16 ENE 0,0
13.11.2018 14:00:00 19,6 15,3 10 6 30 16 NE 0,0
13.11.2018 13:00:00 19,3 15,0 8 5 22 12 NE -
13.11.2018 12:00:00 19,2 14,0 6 3 18 10 NE 0,0
13.11.2018 11:00:00 18,0 12,9 4 2 9 5 N 0,0
13.11.2018 10:00:00 15,5 12,1 5 3 10 5 N 0,0
13.11.2018 09:00:00 14,3 11,6 6 3 9 5 N 0,0
13.11.2018 08:00:00 13,8 11,3 1 1 7 4 NE 0,0
13.11.2018 07:00:00 13,8 11,3 4 2 8 4 NE -
13.11.2018 06:00:00 14,2 11,7 5 3 11 6 NNE 0,0
13.11.2018 05:00:00 14,9 12,4 5 3 22 12 NNE 0,0
13.11.2018 04:00:00 15,1 13,0 8 4 16 9 NNW 0,0
13.11.2018 03:00:00 15,5 13,3 6 3 13 7 NNW 0,0
13.11.2018 02:00:00 16,2 14,0 8 4 15 8 NW 0,0
13.11.2018 01:00:00 16,3 14,1 6 3 13 7 NW -
13.11.2018 00:00:00 16,4 14,1 4 2 13 7 N 0,0
12.11.2018 23:00:00 16,6 14,3 6 3 13 7 NW 0,0
12.11.2018 22:00:00 16,2 13,7 6 3 15 8 NNW 0,0
12.11.2018 21:00:00 16,5 14,0 2 1 9 5 N 0,0
12.11.2018 20:00:00 17,0 14,3 4 2 9 5 N 0,0
12.11.2018 19:00:00 17,6 14,5 3 1 10 5 NW -
12.11.2018 18:00:00 18,3 14,6 5 3 14 8 N 0,0
12.11.2018 17:00:00 18,9 14,2 5 3 15 8 NE 0,0
12.11.2018 16:00:00 19,9 12,9 5 3 13 7 NE 0,0
12.11.2018 15:00:00 20,1 12,6 7 4 13 7 ENE 0,0
12.11.2018 14:00:00 19,5 13,0 4 2 9 5 SSE 0,0
12.11.2018 13:00:00 19,3 11,6 3 2 7 4 WSW -
12.11.2018 12:00:00 18,3 11,8 3 2 6 4 NNE 0,0
12.11.2018 11:00:00 17,3 12,8 1 1 7 4 ENE 0,0
12.11.2018 10:00:00 14,6 12,5 3 2 9 5 NNE 0,0
12.11.2018 09:00:00 12,6 12,0 4 2 7 4 NE 0,0
12.11.2018 08:00:00 11,5 10,9 1 1 6 3 N 0,1
12.11.2018 07:00:00 11,6 11,0 1 1 6 3 ENE -
12.11.2018 06:00:00 11,7 10,9 4 2 9 5 ENE 0,0
12.11.2018 05:00:00 13,2 12,4 3 2 8 4 NE 0,0
12.11.2018 04:00:00 13,8 13,0 4 2 13 7 NNE 0,0
12.11.2018 03:00:00 13,1 12,2 4 2 12 7 NNE 0,0
12.11.2018 02:00:00 13,4 12,1 5 3 10 5 N 0,0
12.11.2018 01:00:00 13,1 11,7 6 3 13 7 NE -
12.11.2018 00:00:00 13,7 11,9 5 3 11 6 NNW 0,0
11.11.2018 23:00:00 14,3 12,5 1 1 6 4 NW 0,0
11.11.2018 22:00:00 15,0 13,0 4 2 8 5 NNW 0,0
11.11.2018 21:00:00 16,0 13,8 1 1 4 2 NW 0,0
11.11.2018 20:00:00 16,8 14,4 2 1 14 8 S 0,0
11.11.2018 19:00:00 16,9 14,4 7 4 13 7 S -
11.11.2018 18:00:00 17,3 14,2 7 4 16 9 S 0,0
11.11.2018 17:00:00 17,7 14,0 9 5 21 11 S 0,0
11.11.2018 16:00:00 18,3 14,0 9 5 20 11 S 0,0
11.11.2018 15:00:00 18,8 14,1 8 5 17 9 S 0,0
11.11.2018 14:00:00 18,9 14,2 8 4 17 9 S 0,0
11.11.2018 13:00:00 19,7 13,9 4 2 17 9 S -
11.11.2018 12:00:00 19,9 14,0 3 2 12 6 SSW 0,0
11.11.2018 11:00:00 18,0 11,3 1 1 4 2 NNE 0,0
11.11.2018 10:00:00 15,9 11,1 1 0 6 3 NNE 0,0
11.11.2018 09:00:00 12,7 10,1 1 1 4 2 NNE 0,0
11.11.2018 08:00:00 11,9 9,3 1 1 5 3 NE 0,0
11.11.2018 07:00:00 12,0 9,6 1 1 5 3 NNE -
11.11.2018 06:00:00 12,0 9,6 1 0 3 2 N 0,0
11.11.2018 05:00:00 13,0 10,5 1 0 4 2 ENE 0,0
11.11.2018 04:00:00 13,1 10,6 0 0 4 2 E 0,0
11.11.2018 03:00:00 13,3 10,5 0 0 5 3 SSE 0,0
11.11.2018 02:00:00 14,1 11,1 1 0 9 5 NNW 0,0
11.11.2018 01:00:00 14,2 11,0 0 0 7 4 NE -
11.11.2018 00:00:00 14,7 11,5 3 1 5 3 N 0,0
10.11.2018 23:00:00 15,8 12,4 4 2 8 4 N 0,0
10.11.2018 22:00:00 17,5 14,2 1 1 11 6 SE 0,0
10.11.2018 21:00:00 17,4 13,3 2 1 21 11 S 0,0
10.11.2018 20:00:00 17,5 13,4 12 6 25 14 SW 0,0
10.11.2018 19:00:00 17,8 12,9 10 5 26 14 SSW -
10.11.2018 18:00:00 17,7 12,8 11 6 28 15 SW 0,0
10.11.2018 17:00:00 17,8 12,3 15 8 32 17 SSW 0,0
10.11.2018 16:00:00 18,5 11,6 15 8 29 16 SSW 0,0
10.11.2018 15:00:00 18,4 10,5 10 5 29 16 SW 0,0
10.11.2018 14:00:00 18,1 10,5 17 9 27 15 SSW 0,0
10.11.2018 13:00:00 18,4 8,4 11 6 24 13 SSW -
10.11.2018 12:00:00 18,7 8,7 7 4 20 11 S 0,0
10.11.2018 11:00:00 18,6 8,6 3 1 10 5 SSW 0,0
10.11.2018 10:00:00 16,4 6,8 2 1 10 6 E 0,0
10.11.2018 09:00:00 14,4 6,8 3 2 5 3 N 0,0
10.11.2018 08:00:00 12,4 5,3 2 1 5 3 N 0,0
10.11.2018 07:00:00 12,8 4,8 2 1 6 3 E -
10.11.2018 06:00:00 13,4 4,6 0 0 8 5 SSE 0,0
10.11.2018 05:00:00 13,6 4,5 4 2 9 5 NE 0,0
10.11.2018 04:00:00 13,0 3,4 1 0 7 4 NNE 0,0
10.11.2018 03:00:00 13,4 2,9 1 0 7 4 N 0,0
10.11.2018 02:00:00 13,9 2,8 0 0 6 3 W 0,0
10.11.2018 01:00:00 14,5 2,7 1 1 7 4 E -
10.11.2018 00:00:00 15,1 2,3 0 0 8 4 ESE 0,0
09.11.2018 23:00:00 15,6 2,4 5 3 19 10 WNW 0,0
09.11.2018 22:00:00 16,0 3,1 4 2 15 8 W 0,0
09.11.2018 21:00:00 15,8 2,9 6 3 14 8 WSW 0,0
09.11.2018 20:00:00 15,9 3,0 2 1 14 8 WSW 0,0
09.11.2018 19:00:00 16,6 3,0 9 5 17 9 NW -
09.11.2018 18:00:00 17,6 3,1 4 2 25 13 W 0,0
09.11.2018 17:00:00 19,4 4,4 5 3 20 11 WNW 0,0
09.11.2018 16:00:00 19,7 4,6 10 5 29 16 W 0,0
09.11.2018 15:00:00 19,3 4,7 12 7 29 16 W 0,0
09.11.2018 14:00:00 18,9 4,7 13 7 33 18 WNW 0,0
09.11.2018 13:00:00 18,2 4,4 11 6 32 17 WNW -
09.11.2018 12:00:00 17,1 4,4 11 6 37 20 WNW 0,0
09.11.2018 11:00:00 16,0 4,1 16 8 32 17 W 0,0
09.11.2018 10:00:00 15,1 3,9 13 7 38 20 WNW 0,0
09.11.2018 09:00:00 14,7 3,5 10 5 29 15 WNW 0,0
09.11.2018 08:00:00 14,2 2,8 8 4 22 12 W 0,0
09.11.2018 07:00:00 14,1 3,9 13 7 26 14 W -
09.11.2018 06:00:00 14,6 7,4 6 4 19 11 WNW 0,0
09.11.2018 05:00:00 14,2 9,4 1 0 13 7 NW 0,0
09.11.2018 04:00:00 14,5 8,9 5 3 26 14 NNW 0,0
09.11.2018 03:00:00 15,9 11,9 7 4 27 14 WNW 0,0
09.11.2018 02:00:00 17,0 13,5 16 9 36 19 SW 0,0
09.11.2018 01:00:00 17,1 13,8 14 8 27 15 WSW -
09.11.2018 00:00:00 17,3 13,8 11 6 37 20 SW 0,0
08.11.2018 23:00:00 17,3 14,0 22 12 42 23 S 0,0
08.11.2018 22:00:00 17,1 13,6 19 10 35 19 SSW 0,0
08.11.2018 21:00:00 17,3 13,2 9 5 24 13 SW 0,0
08.11.2018 20:00:00 17,3 13,4 10 5 26 14 SSW 0,0
08.11.2018 19:00:00 17,2 12,9 11 6 22 12 SSW -
08.11.2018 18:00:00 17,5 13,4 10 6 18 10 SSW 0,0
08.11.2018 17:00:00 17,7 13,4 8 4 14 8 SSW 0,0
08.11.2018 16:00:00 18,3 13,4 5 3 11 6 S 0,0
08.11.2018 15:00:00 18,7 13,6 4 2 9 5 SSE 0,0
08.11.2018 14:00:00 18,6 13,5 2 1 6 4 NE 0,0
08.11.2018 13:00:00 17,8 12,7 3 2 7 4 ENE -

tt = temperature
td = dewpoint
ff = wind speed
fx = gusts
dd = wind direction
rr = precipitation

Next stations